Time;durP1;ratioP1;P1;durP2;ratioP2;P2;SDS_P1;SDS_P2;PMS_P1;PMS_P2;Temp;Humidity;BMP_temperature;BMP_pressure;BME280_temperature;BME280_humidity;BME280_pressure;Samples;Min_cycle;Max_cycle;Signal;HPM_P1;HPM_P2
2022/07/20 00:01:48;;;;;;;9.30;8.40;;;24.30;43.00;;;;;;5079912;28;20174;-51
2022/07/20 00:04:13;;;;;;;9.23;8.37;;;24.30;43.20;;;;;;5079417;28;20342;-52
2022/07/20 00:06:39;;;;;;;8.70;7.80;;;24.20;43.10;;;;;;5079747;28;20818;-50
2022/07/20 00:11:49;;;;;;;8.63;7.83;;;24.10;43.20;;;;;;5077968;28;20273;-53
2022/07/20 00:14:14;;;;;;;8.50;7.70;;;24.10;43.50;;;;;;5079266;28;20522;-52
2022/07/20 00:16:40;;;;;;;9.33;8.43;;;24.00;43.80;;;;;;5079895;28;20420;-50
2022/07/20 00:19:06;;;;;;;9.20;8.40;;;24.00;43.70;;;;;;5079829;28;20185;-54
2022/07/20 00:21:32;;;;;;;10.33;8.30;;;23.90;43.80;;;;;;5079360;28;20184;-53
2022/07/20 00:23:57;;;;;;;9.03;8.27;;;23.90;44.00;;;;;;5078690;28;20189;-50
2022/07/20 00:26:23;;;;;;;8.70;7.97;;;23.80;44.10;;;;;;5079609;28;20418;-50
2022/07/20 00:28:52;;;;;;;8.70;7.90;;;23.80;44.30;;;;;;5079369;28;20172;-51
2022/07/20 00:31:19;;;;;;;9.70;8.80;;;23.70;44.20;;;;;;5078780;28;20578;-50
2022/07/20 00:33:46;;;;;;;9.63;8.50;;;23.70;44.40;;;;;;5079813;28;20445;-51
2022/07/20 00:36:16;;;;;;;8.80;8.00;;;23.60;44.60;;;;;;5079496;28;20416;-51
2022/07/20 00:38:41;;;;;;;9.10;8.30;;;23.40;44.70;;;;;;5078696;28;20438;-55
2022/07/20 00:41:07;;;;;;;9.77;8.73;;;23.40;45.00;;;;;;5079675;28;20427;-53
2022/07/20 00:44:10;;;;;;;9.43;8.13;;;23.30;45.10;;;;;;5079010;28;20186;-54
2022/07/20 00:46:38;;;;;;;10.80;8.53;;;23.30;45.30;;;;;;5079274;28;20451;-54
2022/07/20 00:49:05;;;;;;;8.77;7.90;;;23.20;45.40;;;;;;5078709;28;20507;-51
2022/07/20 00:51:31;;;;;;;9.63;8.73;;;23.10;45.60;;;;;;5078919;28;20455;-51
2022/07/20 00:53:57;;;;;;;10.13;8.77;;;23.10;45.70;;;;;;5079202;28;20430;-55
2022/07/20 00:56:23;;;;;;;9.27;8.37;;;23.00;45.50;;;;;;5078828;28;20416;-55
2022/07/20 00:58:49;;;;;;;8.57;7.87;;;23.00;45.70;;;;;;5079118;28;20435;-51
2022/07/20 01:01:15;;;;;;;9.43;8.43;;;22.90;46.00;;;;;;5078315;28;20411;-54
2022/07/20 01:03:41;;;;;;;9.53;8.13;;;22.90;46.20;;;;;;5078698;28;20449;-53
2022/07/20 01:06:08;;;;;;;8.07;7.33;;;22.90;46.40;;;;;;5061123;28;20450;-50
2022/07/20 01:08:34;;;;;;;9.13;8.03;;;22.90;46.30;;;;;;5077889;28;20176;-51
2022/07/20 01:11:01;;;;;;;11.90;8.77;;;22.80;46.40;;;;;;5078143;28;20428;-51
2022/07/20 01:13:27;;;;;;;14.93;8.47;;;22.80;46.70;;;;;;5078197;28;20843;-51
2022/07/20 01:16:17;;;;;;;8.70;7.60;;;22.80;46.90;;;;;;5078841;28;20719;-53
2022/07/20 01:18:43;;;;;;;8.70;8.00;;;22.70;47.00;;;;;;5078454;28;20820;-52
2022/07/20 01:21:09;;;;;;;9.60;8.50;;;22.70;47.20;;;;;;5078403;28;20665;-50
2022/07/20 01:23:34;;;;;;;9.57;8.60;;;22.60;47.10;;;;;;5078315;28;20197;-50
2022/07/20 01:26:00;;;;;;;9.50;8.53;;;22.60;47.30;;;;;;5078511;28;20508;-51
2022/07/20 01:28:27;;;;;;;9.53;8.53;;;22.50;47.30;;;;;;5078024;28;20417;-50
2022/07/20 01:30:53;;;;;;;12.10;7.83;;;22.50;47.30;;;;;;5077078;28;20415;-50
2022/07/20 01:33:20;;;;;;;8.43;7.60;;;22.50;47.60;;;;;;5077591;28;20433;-52
2022/07/20 01:35:46;;;;;;;8.33;7.60;;;22.50;47.70;;;;;;5077516;28;20631;-52
2022/07/20 01:38:12;;;;;;;8.70;7.80;;;22.50;47.70;;;;;;5076786;28;20438;-55
2022/07/20 01:40:37;;;;;;;9.90;8.90;;;22.40;47.80;;;;;;5078363;28;20566;-52
2022/07/20 01:43:03;;;;;;;8.77;8.07;;;22.40;47.90;;;;;;5078364;28;20257;-50
2022/07/20 01:45:29;;;;;;;7.80;7.03;;;22.30;48.10;;;;;;5077876;28;20192;-53
2022/07/20 01:47:54;;;;;;;9.33;8.40;;;22.30;48.30;;;;;;5078002;28;20191;-52
2022/07/20 01:50:20;;;;;;;8.70;7.80;;;22.30;48.40;;;;;;5077446;28;20195;-51
2022/07/20 01:52:45;;;;;;;8.40;7.70;;;22.30;48.60;;;;;;5077850;28;20207;-51
2022/07/20 01:55:11;;;;;;;8.90;8.00;;;22.20;48.50;;;;;;5078118;28;20210;-55
2022/07/20 01:57:37;;;;;;;9.10;8.20;;;22.20;48.70;;;;;;5077955;28;20175;-53
2022/07/20 02:00:07;;;;;;;8.40;7.70;;;22.20;48.70;;;;;;5077554;28;20688;-52
2022/07/20 02:02:32;;;;;;;9.57;8.67;;;22.20;48.80;;;;;;5078041;28;20177;-52
2022/07/20 02:04:58;;;;;;;8.80;7.90;;;22.20;48.90;;;;;;5077379;28;20417;-51
2022/07/20 02:07:24;;;;;;;9.27;8.37;;;22.20;49.00;;;;;;5077113;28;20576;-51
2022/07/20 02:09:49;;;;;;;8.67;7.97;;;22.20;49.10;;;;;;5077063;28;20271;-52
2022/07/20 02:12:15;;;;;;;8.93;8.10;;;22.10;49.20;;;;;;5077100;28;20211;-51
2022/07/20 02:14:40;;;;;;;9.03;8.20;;;22.00;49.30;;;;;;5076729;28;20175;-51
2022/07/20 02:17:06;;;;;;;8.63;7.77;;;22.00;49.50;;;;;;5077232;28;20185;-53
2022/07/20 02:19:32;;;;;;;7.47;6.77;;;22.00;49.50;;;;;;5077557;28;20177;-53
2022/07/20 02:21:57;;;;;;;7.80;7.17;;;22.00;49.50;;;;;;5077349;28;20185;-50
2022/07/20 02:24:23;;;;;;;8.77;7.77;;;22.00;49.70;;;;;;5076640;28;20209;-51
2022/07/20 02:26:49;;;;;;;8.67;7.50;;;22.00;49.70;;;;;;5075838;28;20188;-51
2022/07/20 02:29:14;;;;;;;9.67;8.67;;;22.00;49.90;;;;;;5077773;28;20547;-54
2022/07/20 02:31:40;;;;;;;9.33;8.43;;;22.00;50.00;;;;;;5077504;28;20814;-51
2022/07/20 02:34:06;;;;;;;10.30;8.50;;;22.00;50.00;;;;;;5077320;28;20182;-55
2022/07/20 02:36:31;;;;;;;8.47;7.77;;;21.90;49.90;;;;;;5077202;28;20570;-53
2022/07/20 02:38:57;;;;;;;8.93;8.13;;;21.90;50.10;;;;;;5075193;28;20553;-51
2022/07/20 02:41:23;;;;;;;9.00;8.20;;;21.80;50.20;;;;;;5075128;28;20278;-52
2022/07/20 02:43:48;;;;;;;8.30;7.60;;;21.80;50.40;;;;;;5074464;28;20521;-51
2022/07/20 02:46:14;;;;;;;8.40;7.60;;;21.90;50.70;;;;;;5079757;28;20307;-56
2022/07/20 02:48:40;;;;;;;8.80;8.00;;;21.80;50.70;;;;;;5082162;28;20206;-51
2022/07/20 02:51:05;;;;;;;9.37;8.47;;;21.80;50.80;;;;;;5081621;28;20557;-53
2022/07/20 02:53:31;;;;;;;8.57;7.67;;;21.80;50.70;;;;;;5082747;28;20183;-53
2022/07/20 02:55:57;;;;;;;8.27;7.50;;;21.80;51.00;;;;;;5083727;28;20194;-49
2022/07/20 02:58:23;;;;;;;8.83;7.90;;;21.80;51.00;;;;;;5083540;28;20270;-51
2022/07/20 03:00:48;;;;;;;8.97;8.07;;;21.70;50.90;;;;;;5083657;28;20179;-53
2022/07/20 03:03:14;;;;;;;9.07;8.00;;;21.70;50.90;;;;;;5083751;28;20429;-51
2022/07/20 03:05:40;;;;;;;9.40;8.53;;;21.70;51.20;;;;;;5083255;28;20285;-51
2022/07/20 03:08:06;;;;;;;7.90;7.20;;;21.70;51.30;;;;;;5083585;28;20193;-50
2022/07/20 03:10:32;;;;;;;9.10;8.20;;;21.70;51.40;;;;;;5083828;28;20510;-51
2022/07/20 03:12:58;;;;;;;9.90;9.00;;;21.70;51.60;;;;;;5083491;28;20498;-52
2022/07/20 03:15:24;;;;;;;8.00;7.20;;;21.60;51.70;;;;;;5083547;28;20847;-52
2022/07/20 03:17:53;;;;;;;8.00;7.30;;;21.60;51.90;;;;;;5083898;28;20177;-54
2022/07/20 03:20:21;;;;;;;9.70;8.77;;;21.60;52.10;;;;;;5083510;28;20549;-50
2022/07/20 03:22:47;;;;;;;9.17;7.90;;;21.50;52.20;;;;;;5083759;28;20422;-54
2022/07/20 03:25:13;;;;;;;8.07;7.27;;;21.50;52.30;;;;;;5083613;28;20814;-53
2022/07/20 03:27:38;;;;;;;8.30;7.60;;;21.50;52.40;;;;;;5083622;28;20370;-51
2022/07/20 03:30:05;;;;;;;8.10;7.30;;;21.50;52.50;;;;;;5083437;28;20578;-55
2022/07/20 03:32:31;;;;;;;8.90;8.00;;;21.50;52.50;;;;;;5081783;28;20370;-52
2022/07/20 03:34:57;;;;;;;8.07;7.20;;;21.50;52.60;;;;;;5080425;28;20479;-52
2022/07/20 03:37:23;;;;;;;6.67;6.07;;;21.50;52.80;;;;;;5080748;28;20176;-53
2022/07/20 03:39:48;;;;;;;8.20;7.40;;;21.40;52.80;;;;;;5080797;28;20692;-52
2022/07/20 03:42:14;;;;;;;8.63;7.83;;;21.40;52.90;;;;;;5080357;28;20220;-51
2022/07/20 03:44:40;;;;;;;8.53;7.70;;;21.40;52.90;;;;;;5080999;28;20584;-51
2022/07/20 03:47:05;;;;;;;8.03;7.33;;;21.40;53.10;;;;;;5081360;28;20191;-51
2022/07/20 03:49:31;;;;;;;8.17;7.37;;;21.40;53.20;;;;;;5081140;28;20584;-53
2022/07/20 03:51:57;;;;;;;8.07;7.37;;;21.40;53.30;;;;;;5081482;28;20219;-53
2022/07/20 03:54:22;;;;;;;8.50;7.70;;;21.50;53.60;;;;;;5082377;28;20514;-54
2022/07/20 03:56:48;;;;;;;8.13;7.33;;;21.50;53.60;;;;;;5080556;28;20275;-49
2022/07/20 03:59:14;;;;;;;8.50;7.70;;;21.50;53.70;;;;;;5079092;28;20175;-53
2022/07/20 04:01:40;;;;;;;7.97;7.13;;;21.50;53.90;;;;;;5078871;28;20183;-53
2022/07/20 04:04:05;;;;;;;8.17;7.47;;;21.50;54.00;;;;;;5078632;28;20247;-51
2022/07/20 04:06:31;;;;;;;8.07;7.37;;;21.50;54.10;;;;;;5078689;28;20480;-51
2022/07/20 04:08:56;;;;;;;8.50;7.70;;;21.50;54.00;;;;;;5077195;28;20191;-55
2022/07/20 04:11:23;;;;;;;8.93;8.13;;;21.50;54.00;;;;;;5078623;28;20582;-54
2022/07/20 04:13:49;;;;;;;8.63;7.73;;;21.50;53.90;;;;;;5078030;28;20209;-53
2022/07/20 04:16:15;;;;;;;8.10;7.30;;;21.60;53.90;;;;;;5077275;28;20419;-52
2022/07/20 04:18:40;;;;;;;8.10;7.33;;;21.60;54.00;;;;;;5076633;28;20189;-50
2022/07/20 04:21:06;;;;;;;9.80;7.10;;;21.60;54.20;;;;;;5073899;28;20191;-53
2022/07/20 04:23:32;;;;;;;12.23;8.23;;;21.60;54.40;;;;;;5073211;28;20188;-50
2022/07/20 04:25:58;;;;;;;12.40;8.37;;;21.60;54.60;;;;;;5073495;28;20266;-49
2022/07/20 04:28:23;;;;;;;10.70;8.10;;;21.60;54.80;;;;;;5071527;28;20439;-52
2022/07/20 04:30:49;;;;;;;8.60;7.87;;;21.60;55.10;;;;;;5073785;28;20176;-55
2022/07/20 04:33:15;;;;;;;9.17;8.37;;;21.70;55.10;;;;;;5074103;28;20484;-57
2022/07/20 04:35:40;;;;;;;8.97;7.90;;;21.70;55.00;;;;;;5075129;28;20439;-54
2022/07/20 04:38:06;;;;;;;9.10;7.67;;;21.80;54.90;;;;;;5074488;28;20214;-58
2022/07/20 04:40:31;;;;;;;8.33;7.63;;;21.90;55.10;;;;;;5074366;28;20239;-55
2022/07/20 04:42:57;;;;;;;7.70;7.10;;;21.90;55.00;;;;;;5073940;28;20175;-58
2022/07/20 04:45:23;;;;;;;7.33;6.63;;;22.00;54.80;;;;;;5073539;28;20181;-54
2022/07/20 04:47:48;;;;;;;10.10;7.60;;;22.10;54.70;;;;;;5072789;28;20208;-57
2022/07/20 04:50:14;;;;;;;7.87;7.13;;;22.20;54.60;;;;;;5072726;28;20187;-55
2022/07/20 04:52:40;;;;;;;8.57;7.80;;;22.20;54.50;;;;;;5072998;28;20205;-58
2022/07/20 04:55:06;;;;;;;8.60;7.43;;;22.30;54.30;;;;;;5070922;28;20536;-55
2022/07/20 04:57:32;;;;;;;8.20;7.40;;;22.40;54.30;;;;;;5072998;28;20731;-59
2022/07/20 04:59:58;;;;;;;8.43;7.67;;;22.40;54.50;;;;;;5073521;28;20415;-57
2022/07/20 05:02:23;;;;;;;9.17;8.20;;;22.40;54.40;;;;;;5074293;28;20176;-55
2022/07/20 05:04:49;;;;;;;8.53;7.73;;;22.40;54.40;;;;;;5073932;28;20176;-58
2022/07/20 05:07:15;;;;;;;7.80;6.97;;;22.50;54.50;;;;;;5075399;28;20504;-58
2022/07/20 05:09:41;;;;;;;11.20;8.70;;;22.50;54.60;;;;;;5073966;28;20176;-56
2022/07/20 05:12:07;;;;;;;9.13;8.23;;;22.60;54.90;;;;;;5075532;28;20212;-56
2022/07/20 05:14:33;;;;;;;9.00;8.10;;;22.60;54.80;;;;;;5074304;28;20443;-58
2022/07/20 05:16:59;;;;;;;9.00;8.20;;;22.60;54.80;;;;;;5076547;28;20412;-57
2022/07/20 05:19:24;;;;;;;8.70;7.80;;;22.70;54.80;;;;;;5075348;28;20188;-58
2022/07/20 05:21:50;;;;;;;9.03;8.23;;;22.80;54.80;;;;;;5072406;28;20192;-56
2022/07/20 05:24:15;;;;;;;9.90;8.80;;;22.80;54.80;;;;;;5072380;28;20189;-57
2022/07/20 05:26:41;;;;;;;8.40;7.60;;;22.90;54.80;;;;;;5074060;28;20184;-57
2022/07/20 05:29:07;;;;;;;8.57;7.70;;;22.90;54.90;;;;;;5070976;28;20267;-56
2022/07/20 05:31:32;;;;;;;10.23;7.97;;;23.00;54.90;;;;;;5070196;28;20262;-56
2022/07/20 05:33:58;;;;;;;9.67;8.57;;;23.10;54.90;;;;;;5069898;28;20196;-56
2022/07/20 05:36:24;;;;;;;10.03;9.00;;;23.10;54.80;;;;;;5072948;28;20183;-58
2022/07/20 05:38:49;;;;;;;9.40;8.47;;;23.20;54.70;;;;;;5072916;28;20187;-55
2022/07/20 05:41:15;;;;;;;8.60;7.80;;;23.30;54.00;;;;;;5074422;28;20715;-58
2022/07/20 05:43:41;;;;;;;10.90;9.90;;;23.40;53.50;;;;;;5073174;28;20192;-56
2022/07/20 05:46:07;;;;;;;10.97;9.20;;;23.50;53.20;;;;;;5072307;28;20419;-58
2022/07/20 05:48:33;;;;;;;9.73;8.73;;;23.60;52.60;;;;;;5070441;28;20181;-57
2022/07/20 05:50:58;;;;;;;9.77;8.77;;;23.60;52.40;;;;;;5069537;28;20167;-54
2022/07/20 05:53:24;;;;;;;10.17;9.17;;;23.70;51.80;;;;;;5070392;28;20446;-56
2022/07/20 05:55:50;;;;;;;15.20;9.80;;;23.80;51.90;;;;;;5070057;28;20724;-58
2022/07/20 05:58:15;;;;;;;10.23;8.97;;;23.90;51.60;;;;;;5070384;28;20206;-57
2022/07/20 06:00:41;;;;;;;9.87;8.57;;;24.00;51.80;;;;;;5070790;28;20204;-56
2022/07/20 06:03:08;;;;;;;12.87;10.03;;;24.10;51.70;;;;;;5070548;28;20215;-57
2022/07/20 06:05:34;;;;;;;12.23;9.50;;;24.20;51.10;;;;;;5071043;28;20433;-58
2022/07/20 06:08:02;;;;;;;8.50;7.77;;;24.30;50.70;;;;;;5068023;28;20620;-57
2022/07/20 06:10:29;;;;;;;12.07;9.23;;;24.40;50.80;;;;;;5068817;28;20559;-55
2022/07/20 06:12:55;;;;;;;11.30;9.70;;;24.50;50.30;;;;;;5070428;28;20540;-56
2022/07/20 06:15:22;;;;;;;13.63;9.00;;;24.50;49.70;;;;;;5071497;28;20411;-58
2022/07/20 06:17:48;;;;;;;10.53;9.60;;;24.70;49.40;;;;;;5072298;28;20860;-56
2022/07/20 06:20:15;;;;;;;9.37;8.37;;;24.80;49.60;;;;;;5071020;28;20409;-57
2022/07/20 06:22:42;;;;;;;13.30;8.90;;;24.90;49.50;;;;;;5072762;28;20276;-57
2022/07/20 06:25:10;;;;;;;11.73;10.50;;;25.00;49.60;;;;;;5073512;28;20830;-57
2022/07/20 06:27:36;;;;;;;10.27;9.37;;;25.10;49.30;;;;;;5070573;28;20419;-54
2022/07/20 06:30:04;;;;;;;9.57;8.43;;;25.20;49.10;;;;;;5072002;28;20450;-57
2022/07/20 06:32:29;;;;;;;10.70;8.97;;;25.30;49.10;;;;;;5072634;28;20761;-52
2022/07/20 06:34:55;;;;;;;9.67;8.87;;;25.50;48.80;;;;;;5072654;28;20431;-56
2022/07/20 06:37:21;;;;;;;11.27;10.20;;;25.60;48.60;;;;;;5072580;28;20224;-54
2022/07/20 06:39:47;;;;;;;11.80;10.70;;;25.80;48.30;;;;;;5071545;28;20486;-55
2022/07/20 06:42:12;;;;;;;11.80;10.23;;;25.90;48.00;;;;;;5071893;28;20580;-57
2022/07/20 06:44:38;;;;;;;10.17;9.10;;;26.10;47.90;;;;;;5070583;28;20204;-56
2022/07/20 06:47:04;;;;;;;10.73;9.73;;;26.30;47.60;;;;;;5072215;28;20181;-59
2022/07/20 06:49:30;;;;;;;11.37;9.47;;;26.50;47.00;;;;;;5073117;28;20190;-56
2022/07/20 06:51:56;;;;;;;13.13;9.23;;;26.70;46.80;;;;;;5073541;28;20468;-55
2022/07/20 06:54:22;;;;;;;11.00;9.63;;;26.80;46.40;;;;;;5074309;28;20276;-56
2022/07/20 06:56:48;;;;;;;10.30;9.30;;;27.00;45.80;;;;;;5075025;28;20181;-58
2022/07/20 06:59:13;;;;;;;10.43;9.53;;;27.10;45.50;;;;;;5073519;28;20416;-58
2022/07/20 07:01:39;;;;;;;11.10;10.00;;;27.30;45.40;;;;;;5075139;28;20190;-56
2022/07/20 07:04:05;;;;;;;10.37;9.47;;;27.50;45.10;;;;;;5074683;28;20263;-58
2022/07/20 07:06:32;;;;;;;10.80;9.70;;;27.70;45.10;;;;;;5075112;28;20214;-58
2022/07/20 07:08:58;;;;;;;10.57;9.67;;;27.90;45.00;;;;;;5074801;28;20423;-57
2022/07/20 07:11:25;;;;;;;10.97;10.03;;;28.20;44.80;;;;;;5075086;28;20837;-58
2022/07/20 07:13:51;;;;;;;10.80;9.87;;;28.40;44.30;;;;;;5073928;28;20477;-57
2022/07/20 07:16:16;;;;;;;9.90;9.03;;;28.60;44.10;;;;;;5074244;28;20693;-57
2022/07/20 07:18:42;;;;;;;10.57;9.47;;;28.70;43.70;;;;;;5073979;28;20571;-56
2022/07/20 07:21:08;;;;;;;9.60;8.80;;;28.90;43.70;;;;;;5073769;28;20191;-59
2022/07/20 07:23:33;;;;;;;10.80;9.90;;;29.10;43.40;;;;;;5073518;28;20214;-58
2022/07/20 07:25:59;;;;;;;10.23;9.23;;;29.30;42.80;;;;;;5072888;28;20180;-57
2022/07/20 07:28:24;;;;;;;10.40;9.50;;;29.50;42.80;;;;;;5073700;28;20207;-58
2022/07/20 07:30:50;;;;;;;10.00;9.20;;;29.60;42.40;;;;;;5073294;28;20237;-55
2022/07/20 07:33:17;;;;;;;8.97;8.30;;;29.60;42.10;;;;;;5076216;28;20223;-54
2022/07/20 07:35:43;;;;;;;10.33;9.53;;;29.50;41.30;;;;;;5078623;28;20167;-56
2022/07/20 07:38:09;;;;;;;10.30;9.23;;;29.30;41.80;;;;;;5077768;28;20442;-55
2022/07/20 07:40:34;;;;;;;11.53;10.63;;;29.50;42.00;;;;;;5077245;28;20415;-57
2022/07/20 07:43:00;;;;;;;13.93;9.77;;;29.70;42.20;;;;;;5077460;28;20491;-58
2022/07/20 07:45:26;;;;;;;10.90;9.23;;;30.00;42.30;;;;;;5077207;28;20579;-57
2022/07/20 07:47:51;;;;;;;11.80;10.73;;;30.20;42.40;;;;;;5077540;28;20276;-58
2022/07/20 07:50:17;;;;;;;10.87;9.73;;;30.40;41.90;;;;;;5077258;28;20170;-56
2022/07/20 07:52:43;;;;;;;10.30;9.30;;;30.70;41.60;;;;;;5074991;28;20597;-56
2022/07/20 07:55:08;;;;;;;10.90;10.00;;;31.00;41.40;;;;;;5072457;28;20322;-41
2022/07/20 07:57:34;;;;;;;11.40;10.37;;;31.20;40.60;;;;;;5075708;28;20464;-43
2022/07/20 08:00:00;;;;;;;10.90;9.90;;;31.20;40.50;;;;;;5075239;28;20636;-43
2022/07/20 08:02:26;;;;;;;12.53;10.73;;;31.20;40.50;;;;;;5071495;28;20198;-41
2022/07/20 08:04:51;;;;;;;11.90;9.70;;;31.30;40.10;;;;;;5075149;28;20221;-40
2022/07/20 08:07:17;;;;;;;11.17;9.90;;;31.50;40.20;;;;;;5074992;28;20582;-41
2022/07/20 08:09:43;;;;;;;11.57;10.57;;;31.80;39.80;;;;;;5077601;28;20181;-41
2022/07/20 08:12:09;;;;;;;11.40;10.27;;;32.00;39.50;;;;;;5077792;28;20249;-43
2022/07/20 08:14:34;;;;;;;10.67;9.67;;;32.10;39.70;;;;;;5074293;28;20413;-43
2022/07/20 08:17:00;;;;;;;10.13;9.23;;;32.30;39.30;;;;;;5076190;28;20186;-42
2022/07/20 08:19:25;;;;;;;11.50;10.50;;;32.40;38.90;;;;;;5076584;28;20472;-42
2022/07/20 08:21:51;;;;;;;10.50;9.40;;;32.60;39.20;;;;;;5075837;28;20172;-44
2022/07/20 08:24:17;;;;;;;11.30;10.30;;;32.80;38.80;;;;;;5075903;28;20258;-41
2022/07/20 08:26:43;;;;;;;10.30;9.50;;;32.90;39.10;;;;;;5076274;28;20172;-41
2022/07/20 08:29:09;;;;;;;13.13;10.30;;;33.10;38.80;;;;;;5076651;28;20187;-43
2022/07/20 08:31:35;;;;;;;11.63;10.60;;;33.40;38.30;;;;;;5076793;28;20472;-40
2022/07/20 08:34:00;;;;;;;10.53;9.73;;;33.90;38.40;;;;;;5077302;28;20403;-41
2022/07/20 08:36:27;;;;;;;10.57;9.67;;;34.20;37.80;;;;;;5076893;28;20211;-43
2022/07/20 08:38:53;;;;;;;10.40;9.50;;;34.40;37.90;;;;;;5076388;28;20409;-42
2022/07/20 08:41:19;;;;;;;9.90;9.00;;;34.50;37.00;;;;;;5077860;28;20584;-41
2022/07/20 08:43:44;;;;;;;10.40;9.40;;;34.80;37.10;;;;;;5074284;28;20246;-41
2022/07/20 08:46:11;;;;;;;9.73;8.93;;;35.10;35.50;;;;;;5077461;28;20192;-43
2022/07/20 08:48:38;;;;;;;10.43;9.53;;;35.20;35.30;;;;;;5076422;28;20178;-41
2022/07/20 08:51:04;;;;;;;10.47;9.40;;;35.10;34.80;;;;;;5075730;28;20419;-43
2022/07/20 08:53:30;;;;;;;11.97;10.10;;;35.30;34.70;;;;;;5075506;28;20496;-44
2022/07/20 08:55:56;;;;;;;9.60;8.83;;;35.40;34.80;;;;;;5075313;28;20392;-44
2022/07/20 08:58:22;;;;;;;9.97;8.70;;;35.70;34.70;;;;;;5074571;28;20174;-41
2022/07/20 09:00:47;;;;;;;10.20;9.40;;;36.00;33.80;;;;;;5076038;28;20530;-44
2022/07/20 09:03:13;;;;;;;9.27;8.47;;;36.20;33.60;;;;;;5075930;28;20185;-44
2022/07/20 09:05:40;;;;;;;10.20;9.30;;;36.40;33.50;;;;;;5075419;28;20212;-41
2022/07/20 09:08:13;;;;;;;9.57;8.77;;;36.30;33.20;;;;;;5076856;28;20788;-42
2022/07/20 09:10:42;;;;;;;10.80;9.80;;;36.40;33.70;;;;;;5076046;28;20439;-43
2022/07/20 09:13:09;;;;;;;9.63;8.60;;;36.70;33.10;;;;;;5075074;28;20479;-41
2022/07/20 09:15:42;;;;;;;10.00;9.10;;;37.20;32.60;;;;;;5076665;28;20417;-45
2022/07/20 09:18:19;;;;;;;9.00;8.37;;;37.70;31.90;;;;;;5076784;28;20394;-41
2022/07/20 09:20:48;;;;;;;10.07;9.20;;;38.20;31.10;;;;;;5076690;28;20415;-42
2022/07/20 09:23:31;;;;;;;13.47;9.33;;;38.50;31.20;;;;;;5074505;28;20496;-41
2022/07/20 09:26:13;;;;;;;10.10;9.20;;;38.70;30.70;;;;;;5075211;28;20433;-43
2022/07/20 09:28:44;;;;;;;10.07;9.17;;;39.00;30.40;;;;;;5075430;28;20797;-42
2022/07/20 09:31:21;;;;;;;10.03;9.23;;;39.20;30.20;;;;;;5073334;28;20520;-42
2022/07/20 09:34:05;;;;;;;9.83;9.03;;;39.30;30.00;;;;;;5073685;28;20494;-43
2022/07/20 09:36:35;;;;;;;10.70;9.63;;;39.30;29.60;;;;;;5074939;28;20847;-43
2022/07/20 09:39:15;;;;;;;11.27;9.90;;;39.30;29.70;;;;;;5072215;28;20478;-43
2022/07/20 09:41:43;;;;;;;11.20;10.20;;;39.20;29.60;;;;;;5073573;28;20696;-42
2022/07/20 09:44:18;;;;;;;10.53;9.20;;;39.20;29.80;;;;;;5071684;28;20423;-44
2022/07/20 09:46:44;;;;;;;9.90;9.00;;;39.40;29.70;;;;;;5072557;28;20422;-45
2022/07/20 09:49:10;;;;;;;11.90;10.20;;;39.70;29.80;;;;;;5070539;28;20577;-44
2022/07/20 09:51:41;;;;;;;11.60;10.50;;;39.90;29.40;;;;;;5071570;28;20540;-44
2022/07/20 09:54:17;;;;;;;10.47;9.63;;;40.00;29.50;;;;;;5073442;28;20575;-45
2022/07/20 09:56:45;;;;;;;10.73;9.80;;;39.90;29.40;;;;;;5072679;28;20434;-43
2022/07/20 09:59:12;;;;;;;10.40;9.40;;;39.90;29.40;;;;;;5073303;28;20419;-42
2022/07/20 10:01:44;;;;;;;10.70;9.70;;;39.90;29.50;;;;;;5073945;28;20434;-42
2022/07/20 10:04:10;;;;;;;10.80;9.90;;;40.20;29.40;;;;;;5073228;28;20423;-43
2022/07/20 10:06:38;;;;;;;10.40;9.50;;;40.40;29.20;;;;;;5075728;28;20466;-44
2022/07/20 10:09:05;;;;;;;10.13;9.33;;;40.60;29.20;;;;;;5075508;28;20852;-44
2022/07/20 10:11:31;;;;;;;11.93;10.73;;;40.50;29.10;;;;;;5073913;28;20549;-43
2022/07/20 10:13:58;;;;;;;10.07;9.23;;;40.60;28.90;;;;;;5070701;28;20533;-44
2022/07/20 10:16:29;;;;;;;10.53;9.83;;;40.60;29.40;;;;;;5071421;28;20426;-45
2022/07/20 10:18:56;;;;;;;10.90;10.00;;;40.90;29.20;;;;;;5071710;28;20431;-42
2022/07/20 10:21:49;;;;;;;11.77;10.40;;;41.30;28.80;;;;;;5071104;28;20420;-41
2022/07/20 10:24:17;;;;;;;11.60;10.57;;;41.80;28.90;;;;;;5066831;28;20443;-43
2022/07/20 10:26:47;;;;;;;11.87;10.63;;;42.20;28.60;;;;;;5069018;28;20424;-45
2022/07/20 10:29:35;;;;;;;11.17;10.13;;;42.50;28.40;;;;;;5068507;28;20422;-45
2022/07/20 10:32:10;;;;;;;11.03;10.20;;;42.50;28.50;;;;;;5069199;28;20490;-44
2022/07/20 10:34:38;;;;;;;11.87;10.80;;;42.50;28.20;;;;;;5069332;28;20877;-42
2022/07/20 10:37:24;;;;;;;10.80;9.77;;;42.60;28.20;;;;;;5069715;28;20506;-44
2022/07/20 10:39:52;;;;;;;9.90;9.10;;;42.60;28.20;;;;;;5069937;28;20503;-47
2022/07/20 10:42:30;;;;;;;10.80;9.80;;;42.70;28.10;;;;;;5072319;28;20440;-44
2022/07/20 10:45:19;;;;;;;10.07;9.27;;;43.00;28.30;;;;;;5072303;28;20441;-43
2022/07/20 10:47:56;;;;;;;9.90;9.20;;;43.50;28.20;;;;;;5070856;28;20856;-44
2022/07/20 10:50:29;;;;;;;11.60;10.47;;;43.80;27.90;;;;;;5073844;28;20763;-43
2022/07/20 10:53:16;;;;;;;10.47;9.67;;;43.90;27.00;;;;;;5074922;28;20478;-44
2022/07/20 10:55:42;;;;;;;10.33;9.47;;;43.90;27.00;;;;;;5067503;28;20606;-44
2022/07/20 10:58:10;;;;;;;10.30;9.60;;;43.80;27.00;;;;;;5073209;28;20423;-45
2022/07/20 11:00:40;;;;;;;12.03;9.20;;;43.80;27.30;;;;;;5073724;28;20340;-43
2022/07/20 11:03:18;;;;;;;9.70;8.90;;;44.00;27.20;;;;;;5074097;28;20881;-45
2022/07/20 11:05:45;;;;;;;10.63;9.73;;;44.20;27.10;;;;;;5073984;28;20425;-43
2022/07/20 11:08:11;;;;;;;10.27;9.50;;;44.60;27.30;;;;;;5076508;28;20510;-43
2022/07/20 11:10:38;;;;;;;10.63;9.53;;;45.00;27.10;;;;;;5075060;28;20510;-43
2022/07/20 11:13:07;;;;;;;10.80;9.77;;;45.30;26.90;;;;;;5077577;28;20463;-42
2022/07/20 11:15:41;;;;;;;12.03;9.37;;;45.20;26.40;;;;;;5076321;28;20533;-43
2022/07/20 11:18:08;;;;;;;11.03;9.93;;;45.00;26.60;;;;;;5076586;28;20408;-44
2022/07/20 11:20:34;;;;;;;10.20;9.50;;;44.90;27.10;;;;;;5076392;28;20858;-42
2022/07/20 11:23:03;;;;;;;11.90;10.40;;;45.00;26.50;;;;;;5073220;28;20958;-44
2022/07/20 11:25:53;;;;;;;10.63;9.60;;;44.90;26.70;;;;;;5075033;28;20445;-43
2022/07/20 11:28:27;;;;;;;10.77;9.67;;;45.00;27.10;;;;;;5070389;28;20446;-45
2022/07/20 11:30:54;;;;;;;10.27;9.50;;;45.40;27.10;;;;;;5072346;28;20492;-42
2022/07/20 11:33:26;;;;;;;11.30;10.40;;;45.70;26.30;;;;;;5077514;28;20713;-43
2022/07/20 11:35:53;;;;;;;10.23;9.37;;;45.90;26.00;;;;;;5075722;28;20427;-48
2022/07/20 11:38:19;;;;;;;9.67;8.77;;;46.10;26.00;;;;;;5076923;28;20424;-45
2022/07/20 11:41:02;;;;;;;8.77;8.07;;;46.20;26.60;;;;;;5077338;28;20415;-44
2022/07/20 11:43:28;;;;;;;10.30;9.50;;;46.40;26.20;;;;;;5076723;28;20190;-45
2022/07/20 11:45:54;;;;;;;13.97;10.00;;;46.50;25.90;;;;;;5076343;28;20727;-46
2022/07/20 11:48:22;;;;;;;10.53;9.73;;;46.40;25.80;;;;;;5073441;28;20446;-43
2022/07/20 11:50:48;;;;;;;10.67;9.50;;;45.90;26.00;;;;;;5079132;28;20236;-43
2022/07/20 11:53:30;;;;;;;9.10;8.50;;;45.50;27.00;;;;;;5078551;28;20789;-42
2022/07/20 11:55:58;;;;;;;9.83;9.13;;;45.80;26.90;;;;;;5078769;28;20466;-45
2022/07/20 11:58:32;;;;;;;9.07;8.50;;;46.20;26.50;;;;;;5077687;28;20465;-46
2022/07/20 12:00:59;;;;;;;9.83;8.93;;;46.60;26.70;;;;;;5077828;28;20891;-45
2022/07/20 12:03:50;;;;;;;10.87;10.00;;;46.90;26.40;;;;;;5076582;28;20444;-44
2022/07/20 12:06:16;;;;;;;9.50;8.80;;;47.00;26.20;;;;;;5072530;28;20435;-44
2022/07/20 12:08:42;;;;;;;10.33;9.30;;;46.90;26.20;;;;;;5079162;28;20659;-45
2022/07/20 12:11:09;;;;;;;10.23;9.33;;;46.90;26.30;;;;;;5078182;28;20648;-45
2022/07/20 12:13:51;;;;;;;10.50;9.37;;;47.00;26.30;;;;;;5079062;28;20696;-44
2022/07/20 12:16:17;;;;;;;10.73;10.00;;;47.20;26.10;;;;;;5077842;28;20441;-43
2022/07/20 12:18:45;;;;;;;9.63;9.03;;;47.50;25.60;;;;;;5075015;28;20417;-47
2022/07/20 12:21:25;;;;;;;10.00;9.20;;;47.40;26.00;;;;;;5076391;28;20509;-43
2022/07/20 12:23:53;;;;;;;11.03;10.10;;;47.20;26.10;;;;;;5077163;28;20547;-44
2022/07/20 12:26:32;;;;;;;10.37;9.67;;;47.00;26.10;;;;;;5078740;28;20439;-44
2022/07/20 12:29:16;;;;;;;11.20;10.20;;;46.50;26.10;;;;;;5077693;28;20421;-43
2022/07/20 12:31:42;;;;;;;11.70;9.63;;;45.60;26.20;;;;;;5074211;28;20759;-45
2022/07/20 12:34:13;;;;;;;11.40;10.40;;;45.20;26.70;;;;;;5075759;28;20645;-45
2022/07/20 12:36:43;;;;;;;12.03;11.17;;;44.30;27.00;;;;;;5073508;28;20561;-45
2022/07/20 12:39:14;;;;;;;12.30;11.60;;;43.30;27.60;;;;;;5073350;28;20442;-43
2022/07/20 12:41:41;;;;;;;14.30;12.97;;;42.30;28.60;;;;;;5072336;28;20441;-41
2022/07/20 12:44:27;;;;;;;15.33;13.97;;;41.30;29.70;;;;;;5075904;28;20429;-44
2022/07/20 12:46:55;;;;;;;15.37;14.30;;;40.10;30.40;;;;;;5075793;28;20826;-44